createdAt,value
2023-02-22T00:00:26.735Z,3.60
2023-02-22T00:02:59.892Z,3.60
2023-02-22T00:05:27.999Z,3.60
2023-02-22T00:07:56.908Z,3.60
2023-02-22T00:10:24.277Z,3.60
2023-02-22T00:12:52.544Z,4.80
2023-02-22T00:15:21.811Z,3.50
2023-02-22T00:17:48.747Z,3.60
2023-02-22T00:20:18.767Z,3.50
2023-02-22T00:22:46.672Z,3.50
2023-02-22T00:25:14.410Z,3.50
2023-02-22T00:27:41.242Z,3.50
2023-02-22T00:30:09.531Z,3.50
2023-02-22T00:32:36.357Z,3.40
2023-02-22T00:35:08.259Z,3.40
2023-02-22T00:37:35.838Z,3.50
2023-02-22T00:40:03.450Z,3.50
2023-02-22T00:42:30.451Z,3.80
2023-02-22T00:44:57.390Z,3.60
2023-02-22T00:47:26.461Z,3.60
2023-02-22T00:49:53.399Z,3.60
2023-02-22T00:52:20.230Z,3.60
2023-02-22T00:54:47.349Z,3.50
2023-02-22T00:57:14.198Z,3.50
2023-02-22T00:59:41.054Z,3.50
2023-02-22T01:02:09.509Z,2.20
2023-02-22T01:04:36.631Z,6.30
2023-02-22T01:07:04.239Z,3.40
2023-02-22T01:09:31.131Z,3.40
2023-02-22T01:11:58.197Z,3.30
2023-02-22T01:14:26.620Z,4.50
2023-02-22T01:16:54.428Z,3.70
2023-02-22T01:19:22.004Z,3.30
2023-02-22T01:21:49.534Z,3.30
2023-02-22T01:24:16.969Z,3.40
2023-02-22T01:26:45.445Z,4.90
2023-02-22T01:29:15.229Z,3.60
2023-02-22T01:31:45.363Z,3.40
2023-02-22T01:34:12.963Z,3.50
2023-02-22T01:36:41.277Z,3.50
2023-02-22T01:39:10.289Z,3.50
2023-02-22T01:41:37.460Z,3.40
2023-02-22T01:44:26.730Z,3.40
2023-02-22T01:46:54.909Z,3.30
2023-02-22T01:49:22.462Z,3.40
2023-02-22T01:51:52.617Z,3.30
2023-02-22T01:54:29.976Z,3.20
2023-02-22T01:57:08.294Z,3.20
2023-02-22T01:59:38.178Z,3.20
2023-02-22T02:02:05.369Z,3.10
2023-02-22T02:04:32.683Z,3.10
2023-02-22T02:07:01.770Z,3.50
2023-02-22T02:09:52.904Z,3.20
2023-02-22T02:12:21.046Z,3.20
2023-02-22T02:14:51.071Z,3.10
2023-02-22T02:17:21.536Z,3.20
2023-02-22T02:20:26.583Z,3.10
2023-02-22T02:23:15.229Z,3.10
2023-02-22T02:25:54.541Z,5.00
2023-02-22T02:28:39.574Z,3.20
2023-02-22T02:31:29.168Z,3.20
2023-02-22T02:34:04.864Z,3.10
2023-02-22T02:36:36.490Z,3.20
2023-02-22T02:39:33.552Z,3.00
2023-02-22T02:42:00.370Z,3.00
2023-02-22T02:44:37.874Z,2.90
2023-02-22T02:47:11.117Z,2.90
2023-02-22T02:49:40.074Z,2.90
2023-02-22T02:52:07.043Z,2.90
2023-02-22T02:54:34.183Z,3.30
2023-02-22T02:57:02.329Z,3.00
2023-02-22T02:59:31.356Z,3.00
2023-02-22T03:02:16.066Z,2.90
2023-02-22T03:05:07.420Z,2.90
2023-02-22T03:07:39.086Z,2.90
2023-02-22T03:10:21.449Z,6.40
2023-02-22T03:13:15.931Z,2.80
2023-02-22T03:16:16.369Z,2.90
2023-02-22T03:19:05.096Z,2.90
2023-02-22T03:21:55.892Z,2.90
2023-02-22T03:24:31.174Z,2.80
2023-02-22T03:27:09.484Z,4.70
2023-02-22T03:29:40.773Z,2.80
2023-02-22T03:32:09.949Z,4.90
2023-02-22T03:34:44.105Z,5.30
2023-02-22T03:37:16.327Z,2.40
2023-02-22T03:39:44.876Z,2.40
2023-02-22T03:42:48.166Z,6.10
2023-02-22T03:45:16.030Z,4.70
2023-02-22T03:47:57.695Z,2.40
2023-02-22T03:50:30.074Z,4.60
2023-02-22T03:52:59.106Z,2.20
2023-02-22T03:55:29.101Z,4.30
2023-02-22T03:58:01.514Z,3.80
2023-02-22T04:00:32.110Z,2.30
2023-02-22T04:02:59.373Z,2.30
2023-02-22T04:05:26.386Z,3.90
2023-02-22T04:07:54.070Z,1.90
2023-02-22T04:10:21.209Z,3.60
2023-02-22T04:12:49.344Z,2.00
2023-02-22T04:15:19.013Z,1.80
2023-02-22T04:17:46.435Z,2.10
2023-02-22T04:20:15.259Z,1.70
2023-02-22T04:22:48.917Z,1.70
2023-02-22T04:25:16.216Z,3.80
2023-02-22T04:27:43.881Z,2.00
2023-02-22T04:30:11.611Z,2.00
2023-02-22T04:32:39.388Z,2.00
2023-02-22T04:35:07.310Z,4.90
2023-02-22T04:37:34.809Z,2.00
2023-02-22T04:40:08.187Z,1.70
2023-02-22T04:42:36.482Z,2.00
2023-02-22T04:45:03.918Z,1.80
2023-02-22T04:47:30.747Z,4.50
2023-02-22T04:50:00.448Z,1.80
2023-02-22T04:52:29.134Z,3.10
2023-02-22T04:54:56.064Z,4.00
2023-02-22T04:57:23.018Z,3.80
2023-02-22T04:59:51.342Z,1.80
2023-02-22T05:02:18.766Z,4.70
2023-02-22T05:04:45.702Z,3.50
2023-02-22T05:07:12.683Z,1.80
2023-02-22T05:09:39.658Z,1.90
2023-02-22T05:12:07.419Z,4.90
2023-02-22T05:14:36.626Z,2.00
2023-02-22T05:17:04.005Z,1.90
2023-02-22T05:19:30.948Z,1.90
2023-02-22T05:21:57.961Z,4.20
2023-02-22T05:24:24.941Z,3.10
2023-02-22T05:26:53.297Z,4.40
2023-02-22T05:29:20.810Z,1.90
2023-02-22T05:31:47.728Z,2.70
2023-02-22T05:34:15.484Z,1.80
2023-02-22T05:36:42.379Z,5.70
2023-02-22T05:39:09.223Z,3.40
2023-02-22T05:41:36.055Z,5.40
2023-02-22T05:44:03.216Z,1.70
2023-02-22T05:46:30.149Z,2.10
2023-02-22T05:48:56.982Z,4.60
2023-02-22T05:51:23.886Z,1.90
2023-02-22T05:53:52.221Z,3.40
2023-02-22T05:56:24.079Z,3.30
2023-02-22T05:58:51.050Z,5.20
2023-02-22T06:01:18.385Z,3.70
2023-02-22T06:03:51.452Z,4.70
2023-02-22T06:06:20.084Z,2.10
2023-02-22T06:08:48.679Z,4.80
2023-02-22T06:11:16.000Z,2.40
2023-02-22T06:14:02.515Z,4.00
2023-02-22T06:16:51.247Z,2.60
2023-02-22T06:19:36.918Z,2.30
2023-02-22T06:22:31.642Z,2.60
2023-02-22T06:25:13.955Z,2.70
2023-02-22T06:27:59.042Z,2.60
2023-02-22T06:30:38.750Z,2.50
2023-02-22T06:33:08.838Z,2.50
2023-02-22T06:35:37.968Z,2.60
2023-02-22T06:38:05.398Z,2.60
2023-02-22T06:40:32.245Z,5.40
2023-02-22T06:43:00.111Z,5.00
2023-02-22T06:45:29.276Z,2.50
2023-02-22T06:47:57.132Z,2.60
2023-02-22T06:50:29.069Z,2.70
2023-02-22T06:52:56.776Z,3.80
2023-02-22T06:55:32.149Z,2.80
2023-02-22T06:58:00.848Z,2.90
2023-02-22T07:00:30.607Z,3.00
2023-02-22T07:02:58.554Z,3.00
2023-02-22T07:05:27.444Z,3.10
2023-02-22T07:07:59.794Z,3.10
2023-02-22T07:10:30.590Z,3.30
2023-02-22T07:12:57.556Z,3.30
2023-02-22T07:15:25.515Z,3.50
2023-02-22T07:17:52.886Z,3.60
2023-02-22T07:20:20.913Z,3.70
2023-02-22T07:22:49.345Z,3.70
2023-02-22T07:25:17.604Z,3.80
2023-02-22T07:27:45.335Z,3.90
2023-02-22T07:30:31.459Z,3.90
2023-02-22T07:33:00.893Z,4.00
2023-02-22T07:35:31.838Z,5.50
2023-02-22T07:37:58.806Z,6.60
2023-02-22T07:40:26.435Z,6.10
2023-02-22T07:42:57.932Z,6.90
2023-02-22T07:45:29.640Z,5.90
2023-02-22T07:47:56.903Z,4.50
2023-02-22T07:50:25.073Z,7.70
2023-02-22T07:52:55.722Z,5.30
2023-02-22T07:55:25.507Z,7.40
2023-02-22T07:57:53.784Z,4.80
2023-02-22T08:00:25.601Z,7.20
2023-02-22T08:02:52.561Z,5.00
2023-02-22T08:05:23.887Z,7.10
2023-02-22T08:07:52.096Z,5.10
2023-02-22T08:10:20.147Z,5.20
2023-02-22T08:12:47.098Z,5.30
2023-02-22T08:15:19.148Z,8.10
2023-02-22T08:17:45.997Z,5.50
2023-02-22T08:20:13.007Z,8.50
2023-02-22T08:22:40.252Z,9.10
2023-02-22T08:25:07.584Z,7.90
2023-02-22T08:27:35.297Z,5.90
2023-02-22T08:30:02.202Z,6.00
2023-02-22T08:32:29.311Z,8.90
2023-02-22T08:34:56.349Z,9.10
2023-02-22T08:37:23.165Z,8.30
2023-02-22T08:39:50.052Z,7.70
2023-02-22T08:42:16.857Z,8.80
2023-02-22T08:44:46.341Z,9.40
2023-02-22T08:47:13.221Z,9.30
2023-02-22T08:49:42.269Z,9.70
2023-02-22T08:52:09.526Z,4.70
2023-02-22T08:54:36.396Z,7.40
2023-02-22T08:57:03.398Z,9.60
2023-02-22T08:59:30.396Z,7.70
2023-02-22T09:01:57.277Z,10.20
2023-02-22T09:04:24.714Z,8.10
2023-02-22T09:06:51.998Z,8.30
2023-02-22T09:09:25.879Z,9.80
2023-02-22T09:11:53.260Z,9.90
2023-02-22T09:14:20.251Z,12.10
2023-02-22T09:16:47.203Z,12.10
2023-02-22T09:19:14.256Z,11.40
2023-02-22T09:21:41.174Z,11.20
2023-02-22T09:24:10.885Z,11.60
2023-02-22T09:26:39.481Z,12.70
2023-02-22T09:29:09.753Z,11.20
2023-02-22T09:31:38.011Z,12.60
2023-02-22T09:34:13.870Z,10.40
2023-02-22T09:36:44.213Z,11.60
2023-02-22T09:39:11.559Z,13.40
2023-02-22T09:41:57.037Z,13.30
2023-02-22T09:44:28.188Z,12.20
2023-02-22T09:46:56.344Z,10.80
2023-02-22T09:49:54.195Z,10.90
2023-02-22T09:52:27.529Z,10.90
2023-02-22T09:55:19.038Z,11.00
2023-02-22T09:57:47.147Z,11.10
2023-02-22T10:00:29.381Z,13.40
2023-02-22T10:03:21.800Z,11.20
2023-02-22T10:05:56.935Z,11.20
2023-02-22T10:08:23.884Z,11.90
2023-02-22T10:10:54.924Z,11.30
2023-02-22T10:13:39.313Z,14.20
2023-02-22T10:16:24.200Z,11.40
2023-02-22T10:19:08.245Z,11.50
2023-02-22T10:21:54.224Z,11.50
2023-02-22T10:24:45.576Z,11.60
2023-02-22T10:27:17.740Z,11.60
2023-02-22T10:29:51.870Z,14.10
2023-02-22T10:32:25.548Z,11.70
2023-02-22T10:34:52.819Z,13.70
2023-02-22T10:37:33.218Z,13.70
2023-02-22T10:40:18.730Z,12.90
2023-02-22T10:42:45.614Z,11.90
2023-02-22T10:45:27.623Z,13.90
2023-02-22T10:47:55.996Z,14.30
2023-02-22T10:50:22.868Z,13.30
2023-02-22T10:52:49.772Z,14.70
2023-02-22T10:55:17.351Z,12.90
2023-02-22T10:57:48.240Z,13.20
2023-02-22T11:00:29.359Z,14.10
2023-02-22T11:03:00.508Z,12.20
2023-02-22T11:05:38.601Z,14.90
2023-02-22T11:08:20.665Z,12.30
2023-02-22T11:10:48.353Z,12.30
2023-02-22T11:13:19.213Z,12.70
2023-02-22T11:15:46.169Z,12.40
2023-02-22T11:18:24.572Z,12.40
2023-02-22T11:20:59.845Z,12.40
2023-02-22T11:23:26.728Z,12.40
2023-02-22T11:26:07.925Z,12.70
2023-02-22T11:28:34.874Z,12.30
2023-02-22T11:31:12.432Z,13.40
2023-02-22T11:33:39.386Z,15.10
2023-02-22T11:36:09.363Z,15.00
2023-02-22T11:38:38.980Z,12.40
2023-02-22T11:41:10.134Z,15.40
2023-02-22T11:43:37.007Z,12.40
2023-02-22T11:46:09.976Z,14.30
2023-02-22T11:48:39.440Z,12.40
2023-02-22T11:51:25.073Z,13.30
2023-02-22T11:54:10.767Z,12.40
2023-02-22T11:56:45.129Z,12.30
2023-02-22T11:59:24.090Z,12.40
2023-02-22T12:01:52.438Z,12.40
2023-02-22T12:04:36.451Z,13.30
2023-02-22T12:07:15.518Z,12.30
2023-02-22T12:10:02.122Z,12.40
2023-02-22T12:12:54.245Z,12.40
2023-02-22T12:15:57.572Z,12.50
2023-02-22T12:18:56.423Z,12.50
2023-02-22T12:21:23.472Z,12.50
2023-02-22T12:24:14.544Z,15.20
2023-02-22T12:26:43.797Z,13.90
2023-02-22T12:29:43.760Z,13.50
2023-02-22T12:32:33.404Z,12.70
2023-02-22T12:35:12.772Z,12.80
2023-02-22T12:37:51.570Z,12.80
2023-02-22T12:40:37.783Z,12.80
2023-02-22T12:43:16.750Z,12.90
2023-02-22T12:46:04.380Z,12.90
2023-02-22T12:48:36.467Z,12.90
2023-02-22T12:51:19.507Z,12.80
2023-02-22T12:53:57.986Z,15.50
2023-02-22T12:56:34.532Z,12.90
2023-02-22T12:59:08.397Z,13.10
2023-02-22T13:01:41.269Z,14.20
2023-02-22T13:04:20.097Z,12.90
2023-02-22T13:06:59.937Z,14.90
2023-02-22T13:09:40.135Z,12.80
2023-02-22T13:12:18.975Z,12.90
2023-02-22T13:15:01.048Z,12.90
2023-02-22T13:17:33.812Z,12.80
2023-02-22T13:20:18.408Z,15.10
2023-02-22T13:22:47.968Z,12.80
2023-02-22T13:25:23.409Z,13.90
2023-02-22T13:27:55.207Z,12.80
2023-02-22T13:30:33.125Z,15.50
2023-02-22T13:33:26.185Z,12.80
2023-02-22T13:36:10.491Z,12.80
2023-02-22T13:38:49.406Z,12.80
2023-02-22T13:41:38.248Z,12.80
2023-02-22T13:44:17.030Z,12.80
2023-02-22T13:47:14.721Z,12.80
2023-02-22T13:50:03.504Z,12.80
2023-02-22T13:52:31.434Z,12.80
2023-02-22T13:55:00.366Z,13.50
2023-02-22T13:57:28.276Z,15.30
2023-02-22T14:00:21.026Z,14.80
2023-02-22T14:03:15.421Z,12.90
2023-02-22T14:05:42.498Z,12.90
2023-02-22T14:08:18.943Z,14.50
2023-02-22T14:10:51.584Z,15.70
2023-02-22T14:13:19.704Z,15.60
2023-02-22T14:16:02.369Z,15.10
2023-02-22T14:18:50.794Z,15.50
2023-02-22T14:21:21.668Z,15.70
2023-02-22T14:23:55.950Z,12.90
2023-02-22T14:26:26.811Z,15.40
2023-02-22T14:28:54.699Z,12.80
2023-02-22T14:31:35.562Z,15.20
2023-02-22T14:34:04.543Z,15.40
2023-02-22T14:36:55.108Z,13.80
2023-02-22T14:39:38.429Z,12.60
2023-02-22T14:42:25.551Z,12.40
2023-02-22T14:44:59.743Z,12.30
2023-02-22T14:47:39.384Z,12.20
2023-02-22T14:50:09.005Z,12.70
2023-02-22T14:52:36.971Z,12.10
2023-02-22T14:55:14.928Z,13.90
2023-02-22T14:57:59.188Z,14.20
2023-02-22T15:00:31.224Z,11.90
2023-02-22T15:03:01.152Z,14.60
2023-02-22T15:05:33.246Z,14.70
2023-02-22T15:08:02.099Z,12.70
2023-02-22T15:10:43.012Z,14.20
2023-02-22T15:13:23.899Z,13.50
2023-02-22T15:16:02.104Z,14.00
2023-02-22T15:18:46.302Z,14.40
2023-02-22T15:21:24.865Z,11.80
2023-02-22T15:23:56.125Z,11.70
2023-02-22T15:26:24.949Z,11.70
2023-02-22T15:28:58.412Z,14.80
2023-02-22T15:31:25.272Z,14.10
2023-02-22T15:33:55.931Z,11.20
2023-02-22T15:36:27.794Z,14.00
2023-02-22T15:38:57.435Z,13.70
2023-02-22T15:41:33.450Z,14.90
2023-02-22T15:44:07.996Z,14.70
2023-02-22T15:46:40.927Z,14.10
2023-02-22T15:49:19.944Z,14.70
2023-02-22T15:51:49.178Z,12.30
2023-02-22T15:54:26.503Z,14.80
2023-02-22T15:56:56.523Z,12.10
2023-02-22T15:59:29.500Z,13.60
2023-02-22T16:01:56.409Z,11.90
2023-02-22T16:04:24.587Z,13.30
2023-02-22T16:06:52.458Z,14.70
2023-02-22T16:09:25.495Z,13.20
2023-02-22T16:12:12.804Z,13.60
2023-02-22T16:14:42.717Z,11.00
2023-02-22T16:17:31.019Z,13.20
2023-02-22T16:20:23.824Z,13.40
2023-02-22T16:22:51.064Z,9.40
2023-02-22T16:25:25.073Z,13.30
2023-02-22T16:27:59.948Z,12.90
2023-02-22T16:30:36.183Z,10.90
2023-02-22T16:33:13.809Z,12.10
2023-02-22T16:35:40.733Z,12.70
2023-02-22T16:38:08.064Z,13.40
2023-02-22T16:40:44.596Z,12.50
2023-02-22T16:43:16.328Z,12.80
2023-02-22T16:45:43.363Z,12.80
2023-02-22T16:48:14.156Z,11.80
2023-02-22T16:50:41.032Z,10.70
2023-02-22T16:53:07.896Z,13.30
2023-02-22T16:55:36.615Z,11.90
2023-02-22T16:58:03.606Z,12.10
2023-02-22T17:00:34.504Z,13.10
2023-02-22T17:03:05.600Z,12.00
2023-02-22T17:05:36.112Z,12.20
2023-02-22T17:08:03.873Z,11.90
2023-02-22T17:10:30.750Z,12.80
2023-02-22T17:12:57.618Z,11.70
2023-02-22T17:15:27.110Z,12.40
2023-02-22T17:17:54.544Z,12.50
2023-02-22T17:20:30.717Z,11.60
2023-02-22T17:23:01.710Z,12.80
2023-02-22T17:25:35.404Z,10.00
2023-02-22T17:28:02.309Z,13.60
2023-02-22T17:30:31.257Z,11.80
2023-02-22T17:33:03.614Z,12.00
2023-02-22T17:35:36.903Z,12.20
2023-02-22T17:38:08.259Z,11.20
2023-02-22T17:40:36.385Z,11.30
2023-02-22T17:43:03.546Z,12.00
2023-02-22T17:45:30.480Z,9.60
2023-02-22T17:47:59.227Z,10.30
2023-02-22T17:50:26.261Z,12.20
2023-02-22T17:52:53.094Z,12.60
2023-02-22T17:55:20.349Z,10.70
2023-02-22T17:57:47.390Z,11.90
2023-02-22T18:00:16.065Z,12.30
2023-02-22T18:02:43.469Z,9.40
2023-02-22T18:05:11.435Z,11.30
2023-02-22T18:07:38.367Z,11.30
2023-02-22T18:10:06.163Z,11.40
2023-02-22T18:12:33.038Z,9.30
2023-02-22T18:15:00.414Z,11.50
2023-02-22T18:17:27.377Z,9.20
2023-02-22T18:19:54.195Z,11.50
2023-02-22T18:22:21.042Z,11.40
2023-02-22T18:24:47.843Z,11.10
2023-02-22T18:27:14.987Z,11.10
2023-02-22T18:29:42.243Z,11.60
2023-02-22T18:32:13.255Z,11.20
2023-02-22T18:34:40.246Z,12.10
2023-02-22T18:37:07.068Z,11.90
2023-02-22T18:39:40.668Z,11.30
2023-02-22T18:42:07.466Z,9.10
2023-02-22T18:44:34.269Z,12.20
2023-02-22T18:47:01.526Z,11.10
2023-02-22T18:49:28.387Z,12.40
2023-02-22T18:51:55.206Z,12.60
2023-02-22T18:54:22.099Z,11.70
2023-02-22T18:56:48.916Z,12.00
2023-02-22T18:59:15.716Z,12.30
2023-02-22T19:01:48.791Z,9.90
2023-02-22T19:04:18.151Z,11.30
2023-02-22T19:06:48.316Z,9.00
2023-02-22T19:09:15.803Z,10.50
2023-02-22T19:11:46.594Z,10.90
2023-02-22T19:14:13.554Z,10.90
2023-02-22T19:16:40.413Z,11.20
2023-02-22T19:19:07.254Z,11.20
2023-02-22T19:21:34.375Z,11.30
2023-02-22T19:24:01.423Z,11.90
2023-02-22T19:26:29.417Z,12.30
2023-02-22T19:28:57.222Z,8.90
2023-02-22T19:31:29.756Z,10.60
2023-02-22T19:34:09.048Z,11.50
2023-02-22T19:36:38.218Z,8.90
2023-02-22T19:39:05.219Z,11.30
2023-02-22T19:41:32.161Z,11.20
2023-02-22T19:43:59.124Z,11.50
2023-02-22T19:46:26.117Z,12.30
2023-02-22T19:48:53.565Z,9.80
2023-02-22T19:51:21.174Z,12.30
2023-02-22T19:53:48.105Z,11.90
2023-02-22T19:56:16.822Z,11.10
2023-02-22T19:58:44.660Z,8.90
2023-02-22T20:01:23.226Z,11.10
2023-02-22T20:03:54.324Z,8.70
2023-02-22T20:06:28.223Z,12.50
2023-02-22T20:08:56.112Z,10.20
2023-02-22T20:11:23.665Z,10.80
2023-02-22T20:13:50.489Z,10.60
2023-02-22T20:16:17.357Z,11.70
2023-02-22T20:18:47.736Z,11.40
2023-02-22T20:21:24.565Z,9.30
2023-02-22T20:23:51.416Z,12.10
2023-02-22T20:26:20.448Z,12.20
2023-02-22T20:28:47.320Z,10.80
2023-02-22T20:31:14.277Z,11.30
2023-02-22T20:33:42.092Z,11.10
2023-02-22T20:36:16.852Z,11.10
2023-02-22T20:38:44.039Z,8.60
2023-02-22T20:41:16.164Z,11.30
2023-02-22T20:43:43.133Z,12.10
2023-02-22T20:46:09.965Z,12.30
2023-02-22T20:48:37.193Z,11.30
2023-02-22T20:51:11.273Z,10.60
2023-02-22T20:53:42.089Z,10.60
2023-02-22T20:56:16.257Z,10.30
2023-02-22T20:58:43.146Z,11.40
2023-02-22T21:01:13.933Z,7.60
2023-02-22T21:03:42.236Z,10.40
2023-02-22T21:06:11.774Z,8.50
2023-02-22T21:08:38.616Z,10.50
2023-02-22T21:11:10.660Z,11.40
2023-02-22T21:13:37.513Z,10.60
2023-02-22T21:16:04.741Z,11.00
2023-02-22T21:18:31.584Z,8.50
2023-02-22T21:21:03.337Z,11.00
2023-02-22T21:23:30.462Z,10.60
2023-02-22T21:25:57.803Z,10.40
2023-02-22T21:28:29.786Z,11.20
2023-02-22T21:31:05.227Z,11.70
2023-02-22T21:33:32.506Z,10.80
2023-02-22T21:36:03.561Z,10.10
2023-02-22T21:38:32.736Z,10.60
2023-02-22T21:41:02.143Z,10.10
2023-02-22T21:43:29.005Z,11.70
2023-02-22T21:45:55.844Z,10.90
2023-02-22T21:48:22.696Z,9.00
2023-02-22T21:50:49.569Z,10.80
2023-02-22T21:53:18.594Z,9.20
2023-02-22T21:55:45.478Z,10.10
2023-02-22T21:58:12.365Z,10.30
2023-02-22T22:00:42.712Z,10.50
2023-02-22T22:03:20.246Z,11.20
2023-02-22T22:05:48.062Z,10.60
2023-02-22T22:08:21.152Z,10.90
2023-02-22T22:10:55.228Z,9.30
2023-02-22T22:13:22.742Z,11.20
2023-02-22T22:15:49.852Z,11.00
2023-02-22T22:18:16.700Z,11.10
2023-02-22T22:20:44.997Z,10.90
2023-02-22T22:23:12.546Z,9.20
2023-02-22T22:25:39.406Z,11.60
2023-02-22T22:28:09.485Z,8.40
2023-02-22T22:30:37.030Z,11.70
2023-02-22T22:33:11.274Z,10.40
2023-02-22T22:35:41.934Z,10.00
2023-02-22T22:38:09.534Z,10.20
2023-02-22T22:40:38.928Z,12.10
2023-02-22T22:43:06.183Z,10.80
2023-02-22T22:45:33.010Z,11.00
2023-02-22T22:48:00.029Z,10.90
2023-02-22T22:50:26.839Z,9.90
2023-02-22T22:52:55.673Z,8.80
2023-02-22T22:55:24.292Z,7.90
2023-02-22T22:57:54.206Z,11.10
2023-02-22T23:00:37.516Z,10.70
2023-02-22T23:03:05.710Z,8.20
2023-02-22T23:05:37.564Z,8.30
2023-02-22T23:08:10.560Z,11.30
2023-02-22T23:10:40.663Z,8.20
2023-02-22T23:13:12.638Z,10.30
2023-02-22T23:15:43.220Z,10.30
2023-02-22T23:18:10.117Z,11.00
2023-02-22T23:20:39.023Z,10.60
2023-02-22T23:23:06.147Z,10.20
2023-02-22T23:25:33.554Z,11.30
2023-02-22T23:28:00.452Z,10.60
2023-02-22T23:30:27.368Z,11.50
2023-02-22T23:32:54.275Z,10.90
2023-02-22T23:35:21.206Z,10.60
2023-02-22T23:37:53.505Z,10.30
2023-02-22T23:40:20.383Z,10.60
2023-02-22T23:42:49.118Z,8.10
2023-02-22T23:45:23.197Z,9.20
2023-02-22T23:47:54.702Z,8.10
2023-02-22T23:50:25.394Z,8.00
2023-02-22T23:52:59.054Z,9.90
2023-02-22T23:55:28.033Z,9.00
2023-02-22T23:58:01.053Z,10.40
